sensor_id;sensor_type;location;lat;lon;timestamp;temperature;humidity
23721;DHT22;42950;52.134;5.578;2023-07-20T00:01:28;16.60;99.90
23721;DHT22;42950;52.134;5.578;2023-07-20T00:03:53;16.70;99.90
23721;DHT22;42950;52.134;5.578;2023-07-20T00:06:23;16.70;99.90
23721;DHT22;42950;52.134;5.578;2023-07-20T00:08:49;16.80;99.90
23721;DHT22;42950;52.134;5.578;2023-07-20T00:11:15;16.70;99.90
23721;DHT22;42950;52.134;5.578;2023-07-20T00:13:41;16.70;99.90
23721;DHT22;42950;52.134;5.578;2023-07-20T00:16:07;16.60;99.90
23721;DHT22;42950;52.134;5.578;2023-07-20T00:18:32;16.60;99.90
23721;DHT22;42950;52.134;5.578;2023-07-20T00:20:59;16.70;99.90
23721;DHT22;42950;52.134;5.578;2023-07-20T00:23:25;16.70;99.90
23721;DHT22;42950;52.134;5.578;2023-07-20T00:25:51;16.70;99.90
23721;DHT22;42950;52.134;5.578;2023-07-20T00:28:17;16.70;99.90
23721;DHT22;42950;52.134;5.578;2023-07-20T00:30:43;16.50;99.90
23721;DHT22;42950;52.134;5.578;2023-07-20T00:33:12;16.50;99.90
23721;DHT22;42950;52.134;5.578;2023-07-20T00:35:40;16.50;99.90
23721;DHT22;42950;52.134;5.578;2023-07-20T00:38:06;16.50;99.90
23721;DHT22;42950;52.134;5.578;2023-07-20T00:40:39;16.50;99.90
23721;DHT22;42950;52.134;5.578;2023-07-20T00:43:07;16.50;99.90
23721;DHT22;42950;52.134;5.578;2023-07-20T00:45:34;16.50;99.90
23721;DHT22;42950;52.134;5.578;2023-07-20T00:48:01;16.40;99.90
23721;DHT22;42950;52.134;5.578;2023-07-20T00:50:28;16.40;99.90
23721;DHT22;42950;52.134;5.578;2023-07-20T00:52:58;16.40;99.90
23721;DHT22;42950;52.134;5.578;2023-07-20T00:55:24;16.50;99.90
23721;DHT22;42950;52.134;5.578;2023-07-20T00:57:51;16.50;99.90
23721;DHT22;42950;52.134;5.578;2023-07-20T01:00:17;16.30;99.90
23721;DHT22;42950;52.134;5.578;2023-07-20T01:02:45;16.30;99.90
23721;DHT22;42950;52.134;5.578;2023-07-20T01:05:11;16.40;99.90
23721;DHT22;42950;52.134;5.578;2023-07-20T01:07:59;16.40;99.90
23721;DHT22;42950;52.134;5.578;2023-07-20T01:10:55;16.30;99.90
23721;DHT22;42950;52.134;5.578;2023-07-20T01:13:23;16.30;99.90
23721;DHT22;42950;52.134;5.578;2023-07-20T01:15:50;16.10;99.90
23721;DHT22;42950;52.134;5.578;2023-07-20T01:18:18;16.10;99.90
23721;DHT22;42950;52.134;5.578;2023-07-20T01:20:44;16.10;99.90
23721;DHT22;42950;52.134;5.578;2023-07-20T01:31:54;16.30;99.90
23721;DHT22;42950;52.134;5.578;2023-07-20T01:34:22;16.20;99.90
23721;DHT22;42950;52.134;5.578;2023-07-20T01:36:50;16.30;99.90
23721;DHT22;42950;52.134;5.578;2023-07-20T01:39:19;16.20;99.90
23721;DHT22;42950;52.134;5.578;2023-07-20T01:41:45;16.10;99.90
23721;DHT22;42950;52.134;5.578;2023-07-20T01:44:12;16.10;99.90
23721;DHT22;42950;52.134;5.578;2023-07-20T01:46:38;16.10;99.90
23721;DHT22;42950;52.134;5.578;2023-07-20T01:49:04;16.00;99.90
23721;DHT22;42950;52.134;5.578;2023-07-20T01:51:29;16.00;99.90
23721;DHT22;42950;52.134;5.578;2023-07-20T01:53:55;16.00;99.90
23721;DHT22;42950;52.134;5.578;2023-07-20T01:56:20;16.10;99.90
23721;DHT22;42950;52.134;5.578;2023-07-20T01:58:46;16.10;99.90
23721;DHT22;42950;52.134;5.578;2023-07-20T02:01:13;16.10;99.90
23721;DHT22;42950;52.134;5.578;2023-07-20T02:03:38;16.20;99.90
23721;DHT22;42950;52.134;5.578;2023-07-20T02:06:04;16.20;99.90
23721;DHT22;42950;52.134;5.578;2023-07-20T02:08:30;16.20;99.90
23721;DHT22;42950;52.134;5.578;2023-07-20T02:10:57;16.20;99.90
23721;DHT22;42950;52.134;5.578;2023-07-20T02:13:22;16.20;99.90
23721;DHT22;42950;52.134;5.578;2023-07-20T02:15:48;16.20;99.90
23721;DHT22;42950;52.134;5.578;2023-07-20T02:18:15;16.20;99.90
23721;DHT22;42950;52.134;5.578;2023-07-20T02:20:41;16.20;99.90
23721;DHT22;42950;52.134;5.578;2023-07-20T02:23:07;16.10;99.90
23721;DHT22;42950;52.134;5.578;2023-07-20T02:25:33;16.10;99.90
23721;DHT22;42950;52.134;5.578;2023-07-20T02:27:59;16.00;99.90
23721;DHT22;42950;52.134;5.578;2023-07-20T02:30:25;16.00;99.90
23721;DHT22;42950;52.134;5.578;2023-07-20T02:32:52;16.00;99.90
23721;DHT22;42950;52.134;5.578;2023-07-20T02:35:18;16.00;99.90
23721;DHT22;42950;52.134;5.578;2023-07-20T02:37:44;16.00;99.90
23721;DHT22;42950;52.134;5.578;2023-07-20T02:40:10;16.00;99.90
23721;DHT22;42950;52.134;5.578;2023-07-20T02:42:36;15.90;99.90
23721;DHT22;42950;52.134;5.578;2023-07-20T02:45:03;15.90;99.90
23721;DHT22;42950;52.134;5.578;2023-07-20T02:47:29;15.90;99.90
23721;DHT22;42950;52.134;5.578;2023-07-20T02:49:55;15.80;99.90
23721;DHT22;42950;52.134;5.578;2023-07-20T02:52:21;15.80;99.90
23721;DHT22;42950;52.134;5.578;2023-07-20T02:54:47;15.90;99.90
23721;DHT22;42950;52.134;5.578;2023-07-20T02:57:12;15.90;99.90
23721;DHT22;42950;52.134;5.578;2023-07-20T02:59:38;16.00;99.90
23721;DHT22;42950;52.134;5.578;2023-07-20T03:02:05;16.00;99.90
23721;DHT22;42950;52.134;5.578;2023-07-20T03:04:30;16.10;99.90
23721;DHT22;42950;52.134;5.578;2023-07-20T03:06:56;16.10;99.90
23721;DHT22;42950;52.134;5.578;2023-07-20T03:09:21;16.10;99.90
23721;DHT22;42950;52.134;5.578;2023-07-20T03:11:48;16.10;99.90
23721;DHT22;42950;52.134;5.578;2023-07-20T03:14:14;16.00;99.90
23721;DHT22;42950;52.134;5.578;2023-07-20T03:16:39;16.00;99.90
23721;DHT22;42950;52.134;5.578;2023-07-20T03:19:05;15.90;99.90
23721;DHT22;42950;52.134;5.578;2023-07-20T03:21:31;15.90;99.90
23721;DHT22;42950;52.134;5.578;2023-07-20T03:23:56;15.90;99.90
23721;DHT22;42950;52.134;5.578;2023-07-20T03:26:22;15.80;99.90
23721;DHT22;42950;52.134;5.578;2023-07-20T03:28:48;15.70;99.90
23721;DHT22;42950;52.134;5.578;2023-07-20T03:31:14;15.60;99.90
23721;DHT22;42950;52.134;5.578;2023-07-20T03:33:40;15.60;99.90
23721;DHT22;42950;52.134;5.578;2023-07-20T03:36:06;15.70;99.90
23721;DHT22;42950;52.134;5.578;2023-07-20T03:38:32;15.70;99.90
23721;DHT22;42950;52.134;5.578;2023-07-20T03:41:00;15.80;99.90
23721;DHT22;42950;52.134;5.578;2023-07-20T03:43:27;15.80;99.90
23721;DHT22;42950;52.134;5.578;2023-07-20T03:45:53;15.80;99.90
23721;DHT22;42950;52.134;5.578;2023-07-20T03:48:21;15.80;99.90
23721;DHT22;42950;52.134;5.578;2023-07-20T03:50:49;15.80;99.90
23721;DHT22;42950;52.134;5.578;2023-07-20T03:53:15;15.80;99.90
23721;DHT22;42950;52.134;5.578;2023-07-20T03:55:54;15.80;99.90
23721;DHT22;42950;52.134;5.578;2023-07-20T03:58:20;15.80;99.90
23721;DHT22;42950;52.134;5.578;2023-07-20T04:00:48;15.80;99.90
23721;DHT22;42950;52.134;5.578;2023-07-20T04:03:14;15.80;99.90
23721;DHT22;42950;52.134;5.578;2023-07-20T04:05:40;15.90;99.90
23721;DHT22;42950;52.134;5.578;2023-07-20T04:08:06;15.90;99.90
23721;DHT22;42950;52.134;5.578;2023-07-20T04:10:32;15.90;99.90
23721;DHT22;42950;52.134;5.578;2023-07-20T04:12:58;15.90;99.90
23721;DHT22;42950;52.134;5.578;2023-07-20T04:15:24;15.90;99.90
23721;DHT22;42950;52.134;5.578;2023-07-20T04:17:49;15.90;99.90
23721;DHT22;42950;52.134;5.578;2023-07-20T04:20:15;16.00;99.90
23721;DHT22;42950;52.134;5.578;2023-07-20T04:22:41;15.90;99.90
23721;DHT22;42950;52.134;5.578;2023-07-20T04:25:07;15.90;99.90
23721;DHT22;42950;52.134;5.578;2023-07-20T04:27:33;15.90;99.90
23721;DHT22;42950;52.134;5.578;2023-07-20T04:29:58;15.90;99.90
23721;DHT22;42950;52.134;5.578;2023-07-20T04:32:27;15.80;99.90
23721;DHT22;42950;52.134;5.578;2023-07-20T04:34:53;15.80;99.90
23721;DHT22;42950;52.134;5.578;2023-07-20T04:37:19;15.80;99.90
23721;DHT22;42950;52.134;5.578;2023-07-20T04:39:44;15.90;99.90
23721;DHT22;42950;52.134;5.578;2023-07-20T04:42:10;15.90;99.90
23721;DHT22;42950;52.134;5.578;2023-07-20T04:44:36;15.90;99.90
23721;DHT22;42950;52.134;5.578;2023-07-20T04:47:02;16.00;99.90
23721;DHT22;42950;52.134;5.578;2023-07-20T04:49:28;16.00;99.90
23721;DHT22;42950;52.134;5.578;2023-07-20T04:51:54;15.90;99.90
23721;DHT22;42950;52.134;5.578;2023-07-20T04:54:20;15.90;99.90
23721;DHT22;42950;52.134;5.578;2023-07-20T04:56:46;15.80;99.90
23721;DHT22;42950;52.134;5.578;2023-07-20T04:59:11;15.70;99.90
23721;DHT22;42950;52.134;5.578;2023-07-20T05:01:37;15.70;99.90
23721;DHT22;42950;52.134;5.578;2023-07-20T05:04:03;15.80;99.90
23721;DHT22;42950;52.134;5.578;2023-07-20T05:06:29;15.90;99.90
23721;DHT22;42950;52.134;5.578;2023-07-20T05:08:54;16.00;99.90
23721;DHT22;42950;52.134;5.578;2023-07-20T05:11:21;16.20;99.90
23721;DHT22;42950;52.134;5.578;2023-07-20T05:13:47;16.00;99.90
23721;DHT22;42950;52.134;5.578;2023-07-20T05:16:13;16.00;99.90
23721;DHT22;42950;52.134;5.578;2023-07-20T05:18:39;16.10;99.90
23721;DHT22;42950;52.134;5.578;2023-07-20T05:21:05;16.10;99.90
23721;DHT22;42950;52.134;5.578;2023-07-20T05:23:31;16.10;99.90
23721;DHT22;42950;52.134;5.578;2023-07-20T05:25:58;16.10;99.90
23721;DHT22;42950;52.134;5.578;2023-07-20T05:28:24;16.20;99.90
23721;DHT22;42950;52.134;5.578;2023-07-20T05:30:51;16.20;99.90
23721;DHT22;42950;52.134;5.578;2023-07-20T05:33:20;16.20;99.90
23721;DHT22;42950;52.134;5.578;2023-07-20T05:35:46;16.20;99.90
23721;DHT22;42950;52.134;5.578;2023-07-20T05:38:13;16.00;99.90
23721;DHT22;42950;52.134;5.578;2023-07-20T05:40:43;16.00;99.90
23721;DHT22;42950;52.134;5.578;2023-07-20T05:43:10;16.00;99.90
23721;DHT22;42950;52.134;5.578;2023-07-20T05:45:35;16.00;99.90
23721;DHT22;42950;52.134;5.578;2023-07-20T05:48:01;16.10;99.90
23721;DHT22;42950;52.134;5.578;2023-07-20T05:50:27;16.10;99.90
23721;DHT22;42950;52.134;5.578;2023-07-20T05:52:53;16.10;99.90
23721;DHT22;42950;52.134;5.578;2023-07-20T05:55:19;16.10;99.90
23721;DHT22;42950;52.134;5.578;2023-07-20T05:57:45;15.90;99.90
23721;DHT22;42950;52.134;5.578;2023-07-20T06:00:12;16.00;99.90
23721;DHT22;42950;52.134;5.578;2023-07-20T06:02:39;16.00;99.90
23721;DHT22;42950;52.134;5.578;2023-07-20T06:05:07;16.10;99.90
23721;DHT22;42950;52.134;5.578;2023-07-20T06:07:38;16.10;99.90
23721;DHT22;42950;52.134;5.578;2023-07-20T06:10:05;16.20;99.90
23721;DHT22;42950;52.134;5.578;2023-07-20T06:12:31;16.20;99.90
23721;DHT22;42950;52.134;5.578;2023-07-20T06:15:01;16.20;99.90
23721;DHT22;42950;52.134;5.578;2023-07-20T06:17:28;16.30;99.90
23721;DHT22;42950;52.134;5.578;2023-07-20T06:19:55;16.30;99.90
23721;DHT22;42950;52.134;5.578;2023-07-20T06:22:20;16.50;99.90
23721;DHT22;42950;52.134;5.578;2023-07-20T06:24:46;16.50;99.90
23721;DHT22;42950;52.134;5.578;2023-07-20T06:27:12;16.60;99.90
23721;DHT22;42950;52.134;5.578;2023-07-20T06:29:38;16.60;99.90
23721;DHT22;42950;52.134;5.578;2023-07-20T06:32:05;16.60;99.90
23721;DHT22;42950;52.134;5.578;2023-07-20T06:34:30;16.70;99.90
23721;DHT22;42950;52.134;5.578;2023-07-20T06:36:56;16.70;99.90
23721;DHT22;42950;52.134;5.578;2023-07-20T06:39:22;16.60;99.90
23721;DHT22;42950;52.134;5.578;2023-07-20T06:41:48;16.60;99.90
23721;DHT22;42950;52.134;5.578;2023-07-20T06:44:14;16.60;99.90
23721;DHT22;42950;52.134;5.578;2023-07-20T06:46:40;16.60;99.90
23721;DHT22;42950;52.134;5.578;2023-07-20T06:49:06;16.70;99.90
23721;DHT22;42950;52.134;5.578;2023-07-20T06:51:34;16.80;99.90
23721;DHT22;42950;52.134;5.578;2023-07-20T06:54:01;16.80;99.90
23721;DHT22;42950;52.134;5.578;2023-07-20T06:56:27;16.80;99.90
23721;DHT22;42950;52.134;5.578;2023-07-20T06:58:54;16.90;99.90
23721;DHT22;42950;52.134;5.578;2023-07-20T07:01:20;16.90;99.90
23721;DHT22;42950;52.134;5.578;2023-07-20T07:03:47;16.90;99.90
23721;DHT22;42950;52.134;5.578;2023-07-20T07:06:13;16.90;99.90
23721;DHT22;42950;52.134;5.578;2023-07-20T07:08:45;16.80;99.90
23721;DHT22;42950;52.134;5.578;2023-07-20T07:11:10;16.80;99.90
23721;DHT22;42950;52.134;5.578;2023-07-20T07:13:36;16.90;99.90
23721;DHT22;42950;52.134;5.578;2023-07-20T07:16:02;16.90;99.90
23721;DHT22;42950;52.134;5.578;2023-07-20T07:18:27;17.10;99.90
23721;DHT22;42950;52.134;5.578;2023-07-20T07:20:53;17.20;99.90
23721;DHT22;42950;52.134;5.578;2023-07-20T07:23:19;17.30;99.90
23721;DHT22;42950;52.134;5.578;2023-07-20T07:25:45;17.40;99.90
23721;DHT22;42950;52.134;5.578;2023-07-20T07:28:11;17.50;99.90
23721;DHT22;42950;52.134;5.578;2023-07-20T07:30:37;17.50;99.90
23721;DHT22;42950;52.134;5.578;2023-07-20T07:33:05;17.50;99.90
23721;DHT22;42950;52.134;5.578;2023-07-20T07:35:30;17.60;99.90
23721;DHT22;42950;52.134;5.578;2023-07-20T07:37:56;17.70;99.90
23721;DHT22;42950;52.134;5.578;2023-07-20T07:40:22;17.90;99.90
23721;DHT22;42950;52.134;5.578;2023-07-20T07:42:47;17.90;99.90
23721;DHT22;42950;52.134;5.578;2023-07-20T07:45:13;17.90;99.90
23721;DHT22;42950;52.134;5.578;2023-07-20T07:47:40;18.00;99.90
23721;DHT22;42950;52.134;5.578;2023-07-20T07:50:06;17.90;99.90
23721;DHT22;42950;52.134;5.578;2023-07-20T07:52:32;17.90;99.90
23721;DHT22;42950;52.134;5.578;2023-07-20T07:54:57;17.90;99.90
23721;DHT22;42950;52.134;5.578;2023-07-20T07:57:23;18.00;99.90
23721;DHT22;42950;52.134;5.578;2023-07-20T07:59:50;18.00;99.90
23721;DHT22;42950;52.134;5.578;2023-07-20T08:02:15;18.10;99.90
23721;DHT22;42950;52.134;5.578;2023-07-20T08:04:41;18.30;99.90
23721;DHT22;42950;52.134;5.578;2023-07-20T08:07:07;18.50;99.90
23721;DHT22;42950;52.134;5.578;2023-07-20T08:09:32;18.50;99.90
23721;DHT22;42950;52.134;5.578;2023-07-20T08:11:58;18.60;99.90
23721;DHT22;42950;52.134;5.578;2023-07-20T08:14:25;18.70;99.90
23721;DHT22;42950;52.134;5.578;2023-07-20T08:16:50;18.70;99.90
23721;DHT22;42950;52.134;5.578;2023-07-20T08:19:16;18.70;99.90
23721;DHT22;42950;52.134;5.578;2023-07-20T08:21:41;18.50;99.90
23721;DHT22;42950;52.134;5.578;2023-07-20T08:24:08;18.50;99.90
23721;DHT22;42950;52.134;5.578;2023-07-20T08:26:34;18.50;99.90
23721;DHT22;42950;52.134;5.578;2023-07-20T08:29:00;18.70;99.90
23721;DHT22;42950;52.134;5.578;2023-07-20T08:31:25;18.90;99.90
23721;DHT22;42950;52.134;5.578;2023-07-20T08:33:53;18.90;99.90
23721;DHT22;42950;52.134;5.578;2023-07-20T08:36:20;19.10;99.90
23721;DHT22;42950;52.134;5.578;2023-07-20T08:38:46;19.20;99.90
23721;DHT22;42950;52.134;5.578;2023-07-20T08:41:12;19.30;99.90
23721;DHT22;42950;52.134;5.578;2023-07-20T08:43:42;19.50;99.90
23721;DHT22;42950;52.134;5.578;2023-07-20T08:46:10;19.60;99.90
23721;DHT22;42950;52.134;5.578;2023-07-20T08:48:36;19.80;99.90
23721;DHT22;42950;52.134;5.578;2023-07-20T08:51:04;20.00;99.90
23721;DHT22;42950;52.134;5.578;2023-07-20T08:53:31;20.20;99.90
23721;DHT22;42950;52.134;5.578;2023-07-20T08:55:58;20.40;99.90
23721;DHT22;42950;52.134;5.578;2023-07-20T08:58:25;20.50;99.90
23721;DHT22;42950;52.134;5.578;2023-07-20T09:00:53;20.60;99.90
23721;DHT22;42950;52.134;5.578;2023-07-20T09:03:19;20.60;99.90
23721;DHT22;42950;52.134;5.578;2023-07-20T09:05:45;20.70;99.90
23721;DHT22;42950;52.134;5.578;2023-07-20T09:08:11;20.80;99.90
23721;DHT22;42950;52.134;5.578;2023-07-20T09:10:36;20.80;99.90
23721;DHT22;42950;52.134;5.578;2023-07-20T09:13:02;20.70;99.90
23721;DHT22;42950;52.134;5.578;2023-07-20T09:15:29;20.70;99.90
23721;DHT22;42950;52.134;5.578;2023-07-20T09:17:55;20.60;99.90
23721;DHT22;42950;52.134;5.578;2023-07-20T09:20:22;20.70;99.90
23721;DHT22;42950;52.134;5.578;2023-07-20T09:22:48;20.90;99.90
23721;DHT22;42950;52.134;5.578;2023-07-20T09:25:17;21.00;99.90
23721;DHT22;42950;52.134;5.578;2023-07-20T09:27:45;20.80;99.90
23721;DHT22;42950;52.134;5.578;2023-07-20T09:30:12;20.60;99.90
23721;DHT22;42950;52.134;5.578;2023-07-20T09:32:47;20.90;99.90
23721;DHT22;42950;52.134;5.578;2023-07-20T09:35:17;21.20;99.90
23721;DHT22;42950;52.134;5.578;2023-07-20T09:37:49;21.30;99.90
23721;DHT22;42950;52.134;5.578;2023-07-20T09:40:18;21.20;99.90
23721;DHT22;42950;52.134;5.578;2023-07-20T09:42:44;20.90;99.90
23721;DHT22;42950;52.134;5.578;2023-07-20T09:45:10;20.60;99.90
23721;DHT22;42950;52.134;5.578;2023-07-20T09:47:37;20.50;99.90
23721;DHT22;42950;52.134;5.578;2023-07-20T09:50:07;20.40;99.90
23721;DHT22;42950;52.134;5.578;2023-07-20T09:52:42;20.50;99.90
23721;DHT22;42950;52.134;5.578;2023-07-20T09:55:10;20.80;99.90
23721;DHT22;42950;52.134;5.578;2023-07-20T09:57:37;21.30;99.90
23721;DHT22;42950;52.134;5.578;2023-07-20T10:00:07;21.40;99.90
23721;DHT22;42950;52.134;5.578;2023-07-20T10:02:45;21.20;99.90
23721;DHT22;42950;52.134;5.578;2023-07-20T10:05:13;21.10;99.90
23721;DHT22;42950;52.134;5.578;2023-07-20T10:07:49;21.30;99.90
23721;DHT22;42950;52.134;5.578;2023-07-20T10:10:16;21.50;99.90
23721;DHT22;42950;52.134;5.578;2023-07-20T10:12:46;22.00;99.90
23721;DHT22;42950;52.134;5.578;2023-07-20T10:15:33;21.90;99.90
23721;DHT22;42950;52.134;5.578;2023-07-20T10:18:38;21.90;99.90
23721;DHT22;42950;52.134;5.578;2023-07-20T10:20:59;22.10;99.90
23721;DHT22;42950;52.134;5.578;2023-07-20T10:23:27;22.10;99.90
23721;DHT22;42950;52.134;5.578;2023-07-20T10:25:54;22.10;99.90
23721;DHT22;42950;52.134;5.578;2023-07-20T10:28:20;22.20;99.90
23721;DHT22;42950;52.134;5.578;2023-07-20T10:30:48;22.30;99.90
23721;DHT22;42950;52.134;5.578;2023-07-20T10:33:17;22.40;99.90
23721;DHT22;42950;52.134;5.578;2023-07-20T10:36:01;22.60;99.90
23721;DHT22;42950;52.134;5.578;2023-07-20T10:41:39;22.60;99.90
23721;DHT22;42950;52.134;5.578;2023-07-20T10:44:07;22.60;99.90
23721;DHT22;42950;52.134;5.578;2023-07-20T10:46:42;22.50;99.90
23721;DHT22;42950;52.134;5.578;2023-07-20T10:49:09;22.40;99.90
23721;DHT22;42950;52.134;5.578;2023-07-20T10:51:42;22.30;99.90
23721;DHT22;42950;52.134;5.578;2023-07-20T10:57:21;22.20;99.90
23721;DHT22;42950;52.134;5.578;2023-07-20T10:59:47;22.60;99.90
23721;DHT22;42950;52.134;5.578;2023-07-20T11:02:18;22.50;99.90
23721;DHT22;42950;52.134;5.578;2023-07-20T11:04:47;22.90;99.90
23721;DHT22;42950;52.134;5.578;2023-07-20T11:07:36;23.20;99.90
23721;DHT22;42950;52.134;5.578;2023-07-20T11:10:15;23.50;99.90
23721;DHT22;42950;52.134;5.578;2023-07-20T11:12:41;23.80;99.90
23721;DHT22;42950;52.134;5.578;2023-07-20T11:15:07;24.20;99.90
23721;DHT22;42950;52.134;5.578;2023-07-20T11:17:33;24.00;99.90
23721;DHT22;42950;52.134;5.578;2023-07-20T11:20:00;24.00;99.90
23721;DHT22;42950;52.134;5.578;2023-07-20T11:22:26;24.50;99.90
23721;DHT22;42950;52.134;5.578;2023-07-20T11:24:56;24.40;99.90
23721;DHT22;42950;52.134;5.578;2023-07-20T11:27:22;24.20;99.90
23721;DHT22;42950;52.134;5.578;2023-07-20T11:29:48;24.30;99.90
23721;DHT22;42950;52.134;5.578;2023-07-20T11:32:20;24.40;99.90
23721;DHT22;42950;52.134;5.578;2023-07-20T11:34:48;24.60;99.90
23721;DHT22;42950;52.134;5.578;2023-07-20T11:37:16;24.70;99.90
23721;DHT22;42950;52.134;5.578;2023-07-20T11:39:42;24.90;99.90
23721;DHT22;42950;52.134;5.578;2023-07-20T11:42:08;24.80;99.90
23721;DHT22;42950;52.134;5.578;2023-07-20T11:44:34;24.40;99.90
23721;DHT22;42950;52.134;5.578;2023-07-20T11:47:11;24.00;99.90
23721;DHT22;42950;52.134;5.578;2023-07-20T11:49:41;24.10;99.90
23721;DHT22;42950;52.134;5.578;2023-07-20T11:52:08;24.20;99.90
23721;DHT22;42950;52.134;5.578;2023-07-20T11:54:35;24.60;99.90
23721;DHT22;42950;52.134;5.578;2023-07-20T11:57:04;25.00;99.90
23721;DHT22;42950;52.134;5.578;2023-07-20T11:59:31;25.30;99.90
23721;DHT22;42950;52.134;5.578;2023-07-20T12:02:03;25.20;99.90
23721;DHT22;42950;52.134;5.578;2023-07-20T12:04:31;24.80;99.90
23721;DHT22;42950;52.134;5.578;2023-07-20T12:06:58;24.50;99.90
23721;DHT22;42950;52.134;5.578;2023-07-20T12:09:24;24.60;99.90
23721;DHT22;42950;52.134;5.578;2023-07-20T12:11:50;24.90;99.90
23721;DHT22;42950;52.134;5.578;2023-07-20T12:14:16;25.00;99.90
23721;DHT22;42950;52.134;5.578;2023-07-20T12:16:42;24.60;99.90
23721;DHT22;42950;52.134;5.578;2023-07-20T12:19:11;24.60;99.90
23721;DHT22;42950;52.134;5.578;2023-07-20T12:21:39;24.80;99.90
23721;DHT22;42950;52.134;5.578;2023-07-20T12:24:10;24.90;99.90
23721;DHT22;42950;52.134;5.578;2023-07-20T12:26:36;25.60;99.90
23721;DHT22;42950;52.134;5.578;2023-07-20T12:29:02;25.90;99.90
23721;DHT22;42950;52.134;5.578;2023-07-20T12:31:30;25.70;99.90
23721;DHT22;42950;52.134;5.578;2023-07-20T12:33:57;25.80;99.90
23721;DHT22;42950;52.134;5.578;2023-07-20T12:36:24;25.90;99.90
23721;DHT22;42950;52.134;5.578;2023-07-20T12:38:50;25.70;99.90
23721;DHT22;42950;52.134;5.578;2023-07-20T12:41:17;25.70;99.90
23721;DHT22;42950;52.134;5.578;2023-07-20T12:43:44;25.60;99.90
23721;DHT22;42950;52.134;5.578;2023-07-20T12:46:10;25.40;99.90
23721;DHT22;42950;52.134;5.578;2023-07-20T12:48:37;25.20;99.90
23721;DHT22;42950;52.134;5.578;2023-07-20T12:51:06;25.40;99.90
23721;DHT22;42950;52.134;5.578;2023-07-20T12:53:32;25.30;99.90
23721;DHT22;42950;52.134;5.578;2023-07-20T12:55:58;25.20;99.90
23721;DHT22;42950;52.134;5.578;2023-07-20T12:58:24;25.10;99.90
23721;DHT22;42950;52.134;5.578;2023-07-20T13:00:50;25.00;99.90
23721;DHT22;42950;52.134;5.578;2023-07-20T13:03:17;25.00;99.90
23721;DHT22;42950;52.134;5.578;2023-07-20T13:05:45;25.30;99.90
23721;DHT22;42950;52.134;5.578;2023-07-20T13:08:11;25.40;99.90
23721;DHT22;42950;52.134;5.578;2023-07-20T13:10:38;25.20;99.90
23721;DHT22;42950;52.134;5.578;2023-07-20T13:13:05;25.00;99.90
23721;DHT22;42950;52.134;5.578;2023-07-20T13:15:32;24.60;99.90
23721;DHT22;42950;52.134;5.578;2023-07-20T13:17:59;24.30;99.90
23721;DHT22;42950;52.134;5.578;2023-07-20T13:20:26;24.20;99.90
23721;DHT22;42950;52.134;5.578;2023-07-20T13:22:52;24.20;99.90
23721;DHT22;42950;52.134;5.578;2023-07-20T13:25:17;24.20;99.90
23721;DHT22;42950;52.134;5.578;2023-07-20T13:27:48;24.10;99.90
23721;DHT22;42950;52.134;5.578;2023-07-20T13:30:13;24.00;99.90
23721;DHT22;42950;52.134;5.578;2023-07-20T13:32:45;24.00;99.90
23721;DHT22;42950;52.134;5.578;2023-07-20T13:35:14;24.00;99.90
23721;DHT22;42950;52.134;5.578;2023-07-20T13:37:41;24.00;99.90
23721;DHT22;42950;52.134;5.578;2023-07-20T13:40:07;24.00;99.90
23721;DHT22;42950;52.134;5.578;2023-07-20T13:42:37;24.10;99.90
23721;DHT22;42950;52.134;5.578;2023-07-20T13:45:03;24.20;99.90
23721;DHT22;42950;52.134;5.578;2023-07-20T13:47:29;24.30;99.90
23721;DHT22;42950;52.134;5.578;2023-07-20T13:49:56;24.60;99.90
23721;DHT22;42950;52.134;5.578;2023-07-20T13:52:22;24.90;99.90
23721;DHT22;42950;52.134;5.578;2023-07-20T13:54:48;25.10;99.90
23721;DHT22;42950;52.134;5.578;2023-07-20T13:57:16;25.10;99.90
23721;DHT22;42950;52.134;5.578;2023-07-20T13:59:42;25.20;99.90
23721;DHT22;42950;52.134;5.578;2023-07-20T14:02:07;25.60;99.90
23721;DHT22;42950;52.134;5.578;2023-07-20T14:04:33;25.90;99.90
23721;DHT22;42950;52.134;5.578;2023-07-20T14:07:00;26.30;99.90
23721;DHT22;42950;52.134;5.578;2023-07-20T14:09:25;26.50;99.90
23721;DHT22;42950;52.134;5.578;2023-07-20T14:11:51;26.30;99.90
23721;DHT22;42950;52.134;5.578;2023-07-20T14:14:16;25.90;99.90
23721;DHT22;42950;52.134;5.578;2023-07-20T14:16:42;25.10;99.90
23721;DHT22;42950;52.134;5.578;2023-07-20T14:19:08;24.60;99.90
23721;DHT22;42950;52.134;5.578;2023-07-20T14:21:34;24.90;99.90
23721;DHT22;42950;52.134;5.578;2023-07-20T14:24:00;24.80;99.90
23721;DHT22;42950;52.134;5.578;2023-07-20T14:26:31;24.90;99.90
23721;DHT22;42950;52.134;5.578;2023-07-20T14:28:57;24.90;99.90
23721;DHT22;42950;52.134;5.578;2023-07-20T14:31:22;25.00;99.90
23721;DHT22;42950;52.134;5.578;2023-07-20T14:33:50;25.10;99.90
23721;DHT22;42950;52.134;5.578;2023-07-20T14:36:16;25.10;99.90
23721;DHT22;42950;52.134;5.578;2023-07-20T14:38:41;25.00;99.90
23721;DHT22;42950;52.134;5.578;2023-07-20T14:41:08;25.20;99.90
23721;DHT22;42950;52.134;5.578;2023-07-20T14:43:34;25.20;99.90
23721;DHT22;42950;52.134;5.578;2023-07-20T14:45:59;25.10;99.90
23721;DHT22;42950;52.134;5.578;2023-07-20T14:48:25;25.20;99.90
23721;DHT22;42950;52.134;5.578;2023-07-20T14:50:51;25.00;99.90
23721;DHT22;42950;52.134;5.578;2023-07-20T14:53:16;24.90;99.90
23721;DHT22;42950;52.134;5.578;2023-07-20T14:55:42;25.00;99.90
23721;DHT22;42950;52.134;5.578;2023-07-20T14:58:08;25.10;99.90
23721;DHT22;42950;52.134;5.578;2023-07-20T15:00:34;25.30;99.90
23721;DHT22;42950;52.134;5.578;2023-07-20T15:03:00;25.00;99.90
23721;DHT22;42950;52.134;5.578;2023-07-20T15:05:26;24.70;99.90
23721;DHT22;42950;52.134;5.578;2023-07-20T15:07:52;24.60;99.90
23721;DHT22;42950;52.134;5.578;2023-07-20T15:10:18;24.80;99.90
23721;DHT22;42950;52.134;5.578;2023-07-20T15:12:44;25.20;99.90
23721;DHT22;42950;52.134;5.578;2023-07-20T15:15:12;24.90;99.90
23721;DHT22;42950;52.134;5.578;2023-07-20T15:17:39;24.90;99.90
23721;DHT22;42950;52.134;5.578;2023-07-20T15:20:09;25.30;99.90
23721;DHT22;42950;52.134;5.578;2023-07-20T15:22:35;25.70;99.90
23721;DHT22;42950;52.134;5.578;2023-07-20T15:25:05;26.10;99.90
23721;DHT22;42950;52.134;5.578;2023-07-20T15:27:32;26.30;99.90
23721;DHT22;42950;52.134;5.578;2023-07-20T15:29:58;26.10;99.90
23721;DHT22;42950;52.134;5.578;2023-07-20T15:32:24;25.80;99.90
23721;DHT22;42950;52.134;5.578;2023-07-20T15:34:50;25.70;99.90
23721;DHT22;42950;52.134;5.578;2023-07-20T15:37:23;25.40;99.90
23721;DHT22;42950;52.134;5.578;2023-07-20T15:39:50;25.20;99.90
23721;DHT22;42950;52.134;5.578;2023-07-20T15:42:16;24.90;99.90
23721;DHT22;42950;52.134;5.578;2023-07-20T15:44:42;24.70;99.90